KMNN/MNN METAR and TAF weather

Enter ICAO airport designator
Station Type Date Time Source
KMNN METAR 2019/04/24 21:53 UTC NOAA

KMNN 242153Z AUTO 09003KT 10SM BKN095 OVC110 16/02 A2993 RMK AO2 SLP138 T01560022


Station Type Date Time Source
KMNN Decoded METAR 2019/04/24 21:53 UTC NOAA

MARION MUNICIPAL AIRPORT, OH, United States (KMNN) 40-37N 83-04W 301M
Apr 24, 2019 - 05:53 PM EDT / 2019.04.24 2153 UTC
Wind: from the E (090 degrees) at 3 MPH (3 KT):0
Visibility: 10 mile(s):0
Sky conditions: overcast
Temperature: 60.1 F (15.6 C)
Dew Point: 36.0 F (2.2 C)
Relative Humidity: 40%
Pressure (altimeter): 29.93 in. Hg (1013 hPa)
ob: KMNN 242153Z AUTO 09003KT 10SM BKN095 OVC110 16/02 A2993 RMK AO2 SLP138 T01560022
cycle: 22

Station Type Date Time Source
KMNN TAF UTC NOAA

Error!

Example: see airport list